Terminal Aerodrome Forecast
Issued by NWS Shreveport, LA

Home | Current Version | Previous Version | Text Only | Print | Product List | Glossary On
Versions: 1 2 3 4 5 6 7 8 9 10 11 12 13 14 15 16 17 18
543
FTUS44 KSHV 251720
TAFSHV
TAF
KSHV 251720Z 2518/2618 VRB03KT P6SM VCTS FEW030CB BKN050
     FM252000 07006KT P6SM VCTS SCT050CB SCT150 BKN250
      TEMPO 2520/2524 VRB15G25KT 2SM TSRA BR OVC050CB
     FM260100 12003KT P6SM FEW050 SCT150 BKN250
     FM260600 13003KT P6SM SCT250
     FM261300 10005KT P6SM SCT250=

USA.gov is the U.S. government's official web portal to all federal, state and local government web resources and services.